Terminal Aerodrome Forecast
Issued by NWS El Paso, TX

Home | Current Version | Previous Version | Text Only | Print | Product List | Glossary On
Versions: 1 2 3 4 5 6 7 8 9 10 11 12 13 14
000
FTUS44 KEPZ 191100 RRA
TAFELP
TAF
KELP 191142Z 1912/2012 12009KT P6SM VCSH SCT070 BKN150
     FM191600 24010KT P6SM SCT050CB BKN100
      TEMPO 1918/1922 VRB25G35KT 5SM TSRA SCT025 BKN050CB
     FM192200 28010G18KT P6SM VCSH SCT050CB BKN080 OVC150
      TEMPO 1922/2002 VRB25G35KT 6SM -TSRA BKN050CB OVC100=

USA.gov is the U.S. government's official web portal to all federal, state and local government web resources and services.